Terminal Aerodrome Forecast
Issued by NWS

Current Version | Previous Version | Text Only | Print | Product List | Glossary On
Versions: 1 2 3 4 5 6 7 8 9 10 11 12 13 14 15 16 17 18 19 20 21 22 23 24
505
FTUS41 KOKX 241325 AAA
TAFSWF
TAF AMD
KSWF 241325Z 2413/2518 VRB03KT 6SM -SHRA BR SCT030 BKN060
      TEMPO 2413/2415 4SM -RA
     FM241500 03005KT P6SM VCSH BKN060
     FM250000 VRB04KT P6SM SCT120
     FM250800 00000KT 4SM BR SKC
     FM251200 27009KT P6SM FEW250
      AMD NOT SKED=

USA.gov is the U.S. government's official web portal to all federal, state and local government web resources and services.